Time;durP1;ratioP1;P1;durP2;ratioP2;P2;SDS_P1;SDS_P2;PMS_P1;PMS_P2;Temp;Humidity;BMP_temperature;BMP_pressure;BME280_temperature;BME280_humidity;BME280_pressure;Samples;Min_cycle;Max_cycle;Signal;HPM_P1;HPM_P2
2021/03/31 00:01:54;;;;;;;9.43;5.83;;;11.60;99.90;;;;;;5033733;28;20265;-75
2021/03/31 00:04:20;;;;;;;6.37;5.77;;;11.60;99.90;;;;;;5032345;28;20265;-75
2021/03/31 00:06:46;;;;;;;7.90;6.00;;;11.50;99.90;;;;;;5033536;28;20175;-75
2021/03/31 00:09:11;;;;;;;7.07;6.33;;;11.50;99.90;;;;;;5031795;28;20248;-76
2021/03/31 00:11:37;;;;;;;8.03;6.53;;;11.50;99.90;;;;;;5033278;28;20218;-75
2021/03/31 00:14:03;;;;;;;8.57;5.73;;;11.50;99.90;;;;;;5033036;28;20190;-74
2021/03/31 00:16:28;;;;;;;8.80;5.57;;;11.50;99.90;;;;;;5032114;28;20181;-76
2021/03/31 00:18:55;;;;;;;7.50;6.20;;;11.40;99.90;;;;;;5033311;28;20248;-75
2021/03/31 00:21:20;;;;;;;9.73;6.33;;;11.40;99.90;;;;;;5033202;28;20248;-75
2021/03/31 00:23:47;;;;;;;8.17;6.03;;;11.30;99.90;;;;;;5033437;28;20174;-75
2021/03/31 00:26:12;;;;;;;9.87;6.23;;;11.30;99.90;;;;;;5031870;28;20261;-75
2021/03/31 00:28:38;;;;;;;8.03;5.77;;;11.20;99.90;;;;;;5033065;28;20693;-75
2021/03/31 00:31:04;;;;;;;6.40;5.73;;;11.10;99.90;;;;;;5033200;28;20332;-75
2021/03/31 00:33:30;;;;;;;7.07;5.77;;;11.00;99.90;;;;;;5033153;28;20259;-75
2021/03/31 00:35:57;;;;;;;7.53;6.03;;;10.90;99.90;;;;;;5033237;28;20223;-75
2021/03/31 00:38:23;;;;;;;6.90;6.20;;;10.70;99.90;;;;;;5033311;28;20198;-75
2021/03/31 00:40:51;;;;;;;8.57;6.30;;;10.60;99.90;;;;;;5031601;28;20233;-76
2021/03/31 00:45:43;;;;;;;10.20;6.13;;;10.40;99.90;;;;;;5049893;22;20245;-73
2021/03/31 00:48:15;;;;;;;11.53;5.27;;;10.30;99.90;;;;;;5032918;28;20174;-73
2021/03/31 00:50:43;;;;;;;7.60;5.23;;;10.30;99.90;;;;;;5031585;28;20179;-73
2021/03/31 00:53:09;;;;;;;11.00;6.67;;;10.30;99.90;;;;;;5033810;28;20210;-73
2021/03/31 00:55:35;;;;;;;8.63;5.40;;;10.30;99.90;;;;;;5033436;28;20190;-73
2021/03/31 00:58:02;;;;;;;7.60;5.80;;;10.30;99.90;;;;;;5033247;28;20205;-72
2021/03/31 01:00:28;;;;;;;5.77;4.97;;;10.30;99.90;;;;;;5032937;28;20182;-72
2021/03/31 01:02:55;;;;;;;5.97;5.07;;;10.30;99.90;;;;;;5032215;28;20176;-73
2021/03/31 01:05:26;;;;;;;10.43;5.27;;;10.20;99.90;;;;;;5032087;28;20251;-72
2021/03/31 01:07:53;;;;;;;7.20;6.00;;;10.10;99.90;;;;;;5032181;28;20190;-72
2021/03/31 01:10:28;;;;;;;8.23;5.20;;;10.00;99.90;;;;;;5032134;28;20253;-72
2021/03/31 01:13:08;;;;;;;7.40;6.20;;;10.00;99.90;;;;;;5026644;28;20175;-73
2021/03/31 01:15:38;;;;;;;8.63;6.40;;;10.10;99.90;;;;;;5032100;28;20186;-72
2021/03/31 01:18:26;;;;;;;7.23;5.60;;;10.10;99.90;;;;;;5030744;28;20600;-73
2021/03/31 01:21:28;;;;;;;8.37;6.33;;;10.10;99.90;;;;;;5032053;28;20185;-73
2021/03/31 01:24:06;;;;;;;8.53;6.17;;;10.10;99.90;;;;;;5032296;28;20194;-73
2021/03/31 01:27:05;;;;;;;10.33;6.57;;;10.10;99.90;;;;;;5034361;28;20174;-73
2021/03/31 01:29:40;;;;;;;8.77;6.37;;;10.10;99.90;;;;;;5035161;28;20554;-72
2021/03/31 01:32:26;;;;;;;10.77;6.37;;;10.10;99.90;;;;;;5034221;28;20296;-72
2021/03/31 01:34:57;;;;;;;11.90;7.17;;;10.10;99.90;;;;;;5036035;28;20259;-72
2021/03/31 01:37:44;;;;;;;7.67;6.90;;;10.10;99.90;;;;;;5036061;28;20185;-72
2021/03/31 01:40:13;;;;;;;11.70;7.33;;;10.00;99.90;;;;;;5035085;28;20205;-72
2021/03/31 01:42:44;;;;;;;8.50;6.83;;;10.00;99.90;;;;;;5026726;28;20222;-72
2021/03/31 01:45:10;;;;;;;10.23;6.63;;;10.00;99.90;;;;;;5026447;28;20325;-72
2021/03/31 01:47:43;;;;;;;9.17;7.03;;;10.00;99.90;;;;;;5032454;28;20206;-73
2021/03/31 01:50:10;;;;;;;8.47;7.00;;;10.10;99.90;;;;;;5034387;28;20679;-72
2021/03/31 01:52:37;;;;;;;11.27;6.70;;;10.00;99.90;;;;;;5036066;28;20186;-72
2021/03/31 01:55:05;;;;;;;11.00;7.33;;;10.10;99.90;;;;;;5036048;28;20205;-72
2021/03/31 01:57:32;;;;;;;7.90;7.07;;;10.00;99.90;;;;;;5035143;28;20189;-72
2021/03/31 01:59:59;;;;;;;9.67;6.93;;;10.00;99.90;;;;;;5034412;28;20328;-72
2021/03/31 02:02:26;;;;;;;7.73;6.43;;;10.00;99.90;;;;;;5035848;28;20175;-72
2021/03/31 02:04:53;;;;;;;9.03;7.20;;;9.90;99.90;;;;;;5035396;28;20696;-72
2021/03/31 02:07:21;;;;;;;12.07;8.43;;;9.90;99.90;;;;;;5035741;28;20179;-72
2021/03/31 02:09:49;;;;;;;8.37;7.53;;;9.90;99.90;;;;;;5035174;28;20181;-72
2021/03/31 02:12:19;;;;;;;9.20;7.60;;;9.90;99.90;;;;;;5034030;28;20175;-72
2021/03/31 02:14:46;;;;;;;9.53;7.63;;;9.90;99.90;;;;;;5035280;28;20198;-72
2021/03/31 02:17:33;;;;;;;9.17;6.70;;;9.90;99.90;;;;;;5034076;28;20560;-72
2021/03/31 02:20:00;;;;;;;9.87;7.20;;;9.90;99.90;;;;;;5034062;28;20676;-71
2021/03/31 02:22:27;;;;;;;8.33;7.00;;;9.90;99.90;;;;;;5035380;28;20231;-72
2021/03/31 02:24:53;;;;;;;8.10;7.30;;;9.80;99.90;;;;;;5035139;28;20237;-72
2021/03/31 02:27:20;;;;;;;8.97;7.27;;;9.80;99.90;;;;;;5035579;28;20205;-72
2021/03/31 02:29:48;;;;;;;11.27;7.30;;;9.80;99.90;;;;;;5035497;28;20186;-72
2021/03/31 02:32:15;;;;;;;9.53;7.47;;;9.80;99.90;;;;;;5035294;28;20241;-72
2021/03/31 02:34:43;;;;;;;10.63;6.77;;;9.70;99.90;;;;;;5033813;28;20230;-72
2021/03/31 02:37:08;;;;;;;10.43;6.37;;;9.60;99.90;;;;;;5034303;28;20181;-72
2021/03/31 02:39:37;;;;;;;8.00;6.93;;;9.60;99.90;;;;;;5035137;28;20204;-72
2021/03/31 02:42:06;;;;;;;10.27;6.50;;;9.60;99.90;;;;;;5034913;28;20228;-72
2021/03/31 02:44:34;;;;;;;9.80;6.63;;;9.50;99.90;;;;;;5034692;28;20270;-71
2021/03/31 02:47:05;;;;;;;8.03;7.23;;;9.50;99.90;;;;;;5034867;28;20185;-72
2021/03/31 02:49:32;;;;;;;7.07;6.27;;;9.30;99.90;;;;;;5035677;28;20196;-70
2021/03/31 02:51:59;;;;;;;7.97;6.40;;;9.10;99.90;;;;;;5034594;28;20193;-72
2021/03/31 02:54:26;;;;;;;7.53;5.93;;;9.10;99.90;;;;;;5034633;28;20325;-72
2021/03/31 02:56:53;;;;;;;8.90;5.93;;;9.10;99.90;;;;;;5034598;28;20181;-72
2021/03/31 02:59:19;;;;;;;8.07;6.47;;;8.90;99.90;;;;;;5034480;28;20211;-72
2021/03/31 03:01:45;;;;;;;9.43;6.47;;;8.80;99.90;;;;;;5033475;28;20209;-72
2021/03/31 03:04:11;;;;;;;7.73;6.60;;;8.80;99.90;;;;;;5034500;28;20205;-72
2021/03/31 03:06:37;;;;;;;8.53;6.60;;;8.70;99.90;;;;;;5034524;28;20193;-72
2021/03/31 03:09:06;;;;;;;7.03;6.10;;;8.60;99.90;;;;;;5034461;28;20260;-72
2021/03/31 03:11:33;;;;;;;10.40;6.60;;;8.60;99.90;;;;;;5034276;28;20189;-72
2021/03/31 03:14:00;;;;;;;10.23;6.57;;;8.50;99.90;;;;;;5027598;28;20604;-72
2021/03/31 03:16:27;;;;;;;8.53;6.50;;;8.50;99.90;;;;;;5034092;28;20667;-72
2021/03/31 03:18:53;;;;;;;11.13;6.90;;;8.60;99.90;;;;;;5034086;28;20287;-71
2021/03/31 03:21:19;;;;;;;6.93;6.23;;;8.70;99.90;;;;;;5034066;28;20715;-72
2021/03/31 03:23:46;;;;;;;11.10;7.30;;;8.60;99.90;;;;;;5033327;28;20197;-72
2021/03/31 03:26:14;;;;;;;9.77;7.07;;;8.70;99.90;;;;;;5033776;28;20648;-72
2021/03/31 03:28:42;;;;;;;9.40;6.60;;;8.60;99.90;;;;;;5034958;28;20185;-72
2021/03/31 03:31:09;;;;;;;10.43;6.60;;;8.50;99.90;;;;;;5035251;28;20193;-72
2021/03/31 03:33:35;;;;;;;10.70;6.20;;;8.40;99.90;;;;;;5033787;28;20227;-72
2021/03/31 03:36:05;;;;;;;7.90;6.63;;;8.40;99.90;;;;;;5033935;28;20283;-72
2021/03/31 03:38:32;;;;;;;8.73;6.50;;;8.40;99.90;;;;;;5033818;28;20204;-71
2021/03/31 03:41:05;;;;;;;9.77;6.53;;;8.20;99.90;;;;;;5033832;28;20173;-72
2021/03/31 03:43:31;;;;;;;8.23;6.57;;;8.20;99.90;;;;;;5032564;28;20188;-72
2021/03/31 03:45:58;;;;;;;11.43;6.43;;;8.00;99.90;;;;;;5031063;28;20181;-72
2021/03/31 03:48:24;;;;;;;9.83;7.13;;;8.00;99.90;;;;;;5021293;28;20197;-72
2021/03/31 03:50:50;;;;;;;9.00;7.17;;;7.90;99.90;;;;;;5031726;28;20175;-72
2021/03/31 03:53:17;;;;;;;6.53;5.83;;;7.80;99.90;;;;;;5033632;28;20189;-72
2021/03/31 03:55:43;;;;;;;8.27;6.63;;;7.80;99.90;;;;;;5033522;28;20604;-72
2021/03/31 03:58:09;;;;;;;11.40;6.50;;;7.80;99.90;;;;;;5033315;28;20252;-72
2021/03/31 04:00:36;;;;;;;8.57;6.37;;;7.70;99.90;;;;;;5028845;28;20551;-72
2021/03/31 04:03:02;;;;;;;7.60;6.50;;;7.80;99.90;;;;;;5020662;28;20200;-72
2021/03/31 04:05:28;;;;;;;8.90;6.30;;;7.70;99.90;;;;;;5023764;28;20203;-73
2021/03/31 04:07:55;;;;;;;12.07;6.50;;;7.60;99.90;;;;;;5031787;28;20178;-72
2021/03/31 04:10:24;;;;;;;10.53;6.63;;;7.50;99.90;;;;;;5028661;28;20534;-72
2021/03/31 04:12:51;;;;;;;11.00;6.13;;;7.50;99.90;;;;;;5030286;28;20184;-72
2021/03/31 04:15:18;;;;;;;8.07;6.40;;;7.50;99.90;;;;;;5031928;28;20224;-72
2021/03/31 04:17:47;;;;;;;8.60;5.90;;;7.50;99.90;;;;;;5032345;28;20525;-72
2021/03/31 04:20:15;;;;;;;10.23;6.60;;;7.50;99.90;;;;;;5033529;28;20211;-72
2021/03/31 04:22:41;;;;;;;6.97;6.27;;;7.60;99.90;;;;;;5032325;28;20183;-71
2021/03/31 04:25:10;;;;;;;7.37;6.07;;;7.60;99.90;;;;;;5029882;28;20202;-72
2021/03/31 04:27:36;;;;;;;8.73;7.83;;;7.60;99.90;;;;;;5032270;28;20260;-72
2021/03/31 04:30:10;;;;;;;10.00;6.10;;;7.60;99.90;;;;;;5030940;28;20273;-72
2021/03/31 04:32:38;;;;;;;8.20;6.27;;;7.50;99.90;;;;;;5032077;28;20672;-72
2021/03/31 04:35:05;;;;;;;10.80;6.00;;;7.40;99.90;;;;;;5029199;28;20203;-72
2021/03/31 04:37:34;;;;;;;9.97;6.60;;;7.20;99.90;;;;;;5030596;28;20183;-73
2021/03/31 04:40:02;;;;;;;8.67;6.07;;;7.20;99.90;;;;;;5022946;28;20771;-71
2021/03/31 04:42:28;;;;;;;8.63;6.27;;;7.10;99.90;;;;;;5031870;28;20177;-72
2021/03/31 04:44:54;;;;;;;11.30;6.33;;;7.10;99.90;;;;;;5031984;28;20230;-71
2021/03/31 04:47:20;;;;;;;8.87;6.33;;;7.10;99.90;;;;;;5031220;28;20175;-72
2021/03/31 04:49:46;;;;;;;10.67;6.87;;;7.10;99.90;;;;;;5021969;28;20187;-71
2021/03/31 04:52:11;;;;;;;9.27;6.90;;;7.10;99.90;;;;;;5027331;28;20568;-72
2021/03/31 04:54:37;;;;;;;13.40;6.80;;;7.10;99.90;;;;;;5028502;28;20191;-72
2021/03/31 04:57:03;;;;;;;14.63;6.90;;;7.20;99.90;;;;;;5016257;28;20237;-72
2021/03/31 04:59:28;;;;;;;10.97;6.00;;;7.20;99.90;;;;;;5029992;28;20198;-72
2021/03/31 05:01:55;;;;;;;11.40;6.50;;;7.20;99.90;;;;;;5036915;28;20170;-72
2021/03/31 05:04:21;;;;;;;10.77;6.37;;;7.20;99.90;;;;;;5035836;28;20210;-72
2021/03/31 05:06:47;;;;;;;8.93;7.00;;;7.20;99.90;;;;;;5021867;28;20183;-72
2021/03/31 05:09:13;;;;;;;8.70;7.27;;;7.20;99.90;;;;;;5029715;28;20195;-72
2021/03/31 05:11:39;;;;;;;10.27;7.10;;;7.30;99.90;;;;;;5020325;28;20176;-72
2021/03/31 05:14:05;;;;;;;8.60;7.40;;;7.30;99.90;;;;;;5035396;28;20240;-72
2021/03/31 05:16:31;;;;;;;10.23;7.83;;;7.30;99.90;;;;;;5017396;28;20187;-71
2021/03/31 05:18:57;;;;;;;10.60;7.10;;;7.30;99.90;;;;;;5021893;28;20207;-72
2021/03/31 05:21:23;;;;;;;9.93;5.83;;;7.40;99.90;;;;;;5030732;28;20557;-72
2021/03/31 05:23:49;;;;;;;8.33;6.63;;;7.40;99.90;;;;;;5025636;28;20263;-72
2021/03/31 05:26:16;;;;;;;11.60;7.00;;;7.30;99.90;;;;;;5035045;28;20176;-72
2021/03/31 05:28:42;;;;;;;10.47;6.43;;;7.40;99.90;;;;;;5032375;28;20190;-72
2021/03/31 05:31:08;;;;;;;13.70;6.97;;;7.20;99.90;;;;;;5016074;28;20184;-72
2021/03/31 05:33:34;;;;;;;9.77;6.83;;;7.10;99.90;;;;;;5026181;28;20270;-72
2021/03/31 05:36:00;;;;;;;8.47;7.20;;;7.10;99.90;;;;;;5023629;28;20568;-72
2021/03/31 05:38:26;;;;;;;9.93;6.67;;;7.10;99.90;;;;;;5038724;28;20215;-72
2021/03/31 05:40:56;;;;;;;12.20;7.53;;;7.10;99.90;;;;;;5036857;28;20241;-72
2021/03/31 05:43:22;;;;;;;11.97;6.80;;;7.10;99.90;;;;;;5036478;28;20578;-72
2021/03/31 05:45:48;;;;;;;12.40;6.90;;;7.20;99.90;;;;;;5036313;28;20177;-72
2021/03/31 05:48:13;;;;;;;8.47;7.40;;;7.20;99.90;;;;;;5036431;28;20266;-72
2021/03/31 05:50:39;;;;;;;9.43;7.53;;;7.20;99.90;;;;;;5034273;28;20187;-72
2021/03/31 05:53:05;;;;;;;9.10;6.97;;;7.30;99.90;;;;;;5031805;28;20270;-71
2021/03/31 05:55:30;;;;;;;9.70;7.00;;;7.30;99.90;;;;;;5032880;28;20199;-71
2021/03/31 05:57:57;;;;;;;16.10;8.33;;;7.40;99.90;;;;;;5035438;28;20680;-72
2021/03/31 06:00:23;;;;;;;10.47;7.47;;;7.40;99.90;;;;;;5037144;28;20198;-72
2021/03/31 06:02:50;;;;;;;8.93;7.80;;;7.50;99.90;;;;;;5035241;28;20187;-72
2021/03/31 06:05:18;;;;;;;11.10;7.20;;;7.60;99.90;;;;;;5033502;28;20200;-72
2021/03/31 06:07:46;;;;;;;10.73;7.40;;;7.70;99.90;;;;;;5035371;28;20183;-72
2021/03/31 06:10:20;;;;;;;10.57;7.77;;;7.80;99.90;;;;;;5034614;28;20195;-72
2021/03/31 06:12:54;;;;;;;9.93;7.60;;;7.80;99.90;;;;;;5033358;28;20180;-72
2021/03/31 06:15:33;;;;;;;10.33;7.30;;;7.90;99.90;;;;;;5034211;28;20208;-72
2021/03/31 06:18:19;;;;;;;12.90;8.07;;;8.00;99.90;;;;;;5022951;28;20264;-72
2021/03/31 06:21:00;;;;;;;12.60;8.27;;;8.00;99.90;;;;;;5035272;28;20190;-72
2021/03/31 06:26:19;;;;;;;10.07;8.57;;;8.10;99.90;;;;;;5032697;28;20266;-72
2021/03/31 06:28:54;;;;;;;13.63;8.90;;;8.20;99.90;;;;;;5034656;28;20167;-72
2021/03/31 06:31:20;;;;;;;12.63;8.03;;;8.20;99.90;;;;;;5034608;28;20171;-71
2021/03/31 06:33:47;;;;;;;15.03;8.60;;;8.30;99.90;;;;;;5031514;28;20192;-72
2021/03/31 06:36:15;;;;;;;12.10;8.57;;;8.40;99.90;;;;;;5034674;28;20191;-72
2021/03/31 06:38:51;;;;;;;12.43;8.77;;;8.40;99.90;;;;;;5034830;28;20456;-72
2021/03/31 06:41:34;;;;;;;12.53;9.20;;;8.30;99.90;;;;;;5033804;28;20185;-72
2021/03/31 06:44:24;;;;;;;16.57;9.50;;;8.40;99.90;;;;;;5033801;28;20671;-72
2021/03/31 06:49:15;;;;;;;12.83;9.33;;;8.40;99.90;;;;;;5035074;28;20646;-78
2021/03/31 06:51:42;;;;;;;11.20;8.27;;;8.30;99.90;;;;;;5032822;28;20202;-77
2021/03/31 06:54:19;;;;;;;15.60;8.47;;;8.40;99.90;;;;;;5034723;28;20188;-77
2021/03/31 06:56:56;;;;;;;14.97;8.50;;;8.30;99.90;;;;;;5034284;28;20199;-77
2021/03/31 06:59:28;;;;;;;14.33;8.50;;;8.50;99.90;;;;;;5033326;28;20197;-77
2021/03/31 07:01:56;;;;;;;11.13;8.30;;;8.70;99.90;;;;;;5035014;28;20174;-77
2021/03/31 07:04:23;;;;;;;11.40;8.53;;;8.70;99.90;;;;;;5034522;28;20169;-77
2021/03/31 07:07:09;;;;;;;12.10;7.90;;;8.80;99.90;;;;;;5034596;28;20555;-77
2021/03/31 07:09:39;;;;;;;16.43;8.13;;;8.80;99.90;;;;;;5034468;28;20192;-77
2021/03/31 07:12:17;;;;;;;11.73;8.23;;;9.00;99.90;;;;;;5033503;28;20193;-77
2021/03/31 07:14:48;;;;;;;13.27;8.27;;;9.10;99.90;;;;;;5034479;28;20192;-77
2021/03/31 07:17:26;;;;;;;12.80;8.43;;;9.20;99.90;;;;;;5033000;28;20668;-77
2021/03/31 07:19:53;;;;;;;13.97;8.80;;;9.40;99.90;;;;;;5034182;28;20282;-77
2021/03/31 07:22:19;;;;;;;10.07;8.10;;;9.60;99.90;;;;;;5032909;28;20180;-77
2021/03/31 07:24:44;;;;;;;18.93;9.13;;;9.80;99.90;;;;;;5034373;28;20236;-77
2021/03/31 07:27:15;;;;;;;10.40;8.57;;;9.80;99.90;;;;;;5034138;28;20194;-77
2021/03/31 07:32:36;;;;;;;12.47;8.70;;;9.90;99.90;;;;;;5034086;28;20176;-77
2021/03/31 07:35:03;;;;;;;13.03;9.63;;;10.10;99.90;;;;;;5034289;28;20644;-76
2021/03/31 07:37:34;;;;;;;15.43;9.20;;;10.20;99.90;;;;;;5032854;28;20640;-77
2021/03/31 07:40:03;;;;;;;11.87;8.90;;;10.40;99.90;;;;;;5033970;28;20199;-77
2021/03/31 07:42:29;;;;;;;13.37;10.00;;;10.40;99.90;;;;;;5033929;28;20175;-77
2021/03/31 07:44:58;;;;;;;20.10;9.90;;;10.40;99.90;;;;;;5034284;28;20649;-77
2021/03/31 07:47:26;;;;;;;15.67;9.87;;;10.50;99.90;;;;;;5033599;28;20202;-78
2021/03/31 07:49:54;;;;;;;22.70;11.07;;;10.60;99.90;;;;;;5034362;28;20178;-77
2021/03/31 07:52:20;;;;;;;13.77;9.90;;;10.60;99.90;;;;;;5033772;28;20205;-77
2021/03/31 07:54:45;;;;;;;20.20;10.53;;;10.70;99.90;;;;;;5032806;28;20649;-77
2021/03/31 07:57:22;;;;;;;15.40;10.23;;;10.70;99.90;;;;;;5033929;28;20239;-78
2021/03/31 07:59:48;;;;;;;16.30;11.00;;;10.80;99.90;;;;;;5033707;28;20283;-76
2021/03/31 08:02:15;;;;;;;17.73;10.87;;;10.90;99.90;;;;;;5033949;28;20281;-77
2021/03/31 08:04:41;;;;;;;16.97;11.23;;;11.00;99.90;;;;;;5032020;28;20197;-78
2021/03/31 08:07:21;;;;;;;20.40;13.50;;;11.00;99.90;;;;;;5034343;28;20198;-78
2021/03/31 08:09:47;;;;;;;21.50;14.03;;;11.20;99.90;;;;;;5033924;28;20178;-77
2021/03/31 08:12:29;;;;;;;28.93;15.93;;;11.40;99.90;;;;;;5034920;28;20182;-78
2021/03/31 08:14:55;;;;;;;20.80;12.50;;;11.60;99.90;;;;;;5034983;28;20174;-78
2021/03/31 08:17:22;;;;;;;27.13;13.37;;;11.70;99.90;;;;;;5035882;28;20203;-77
2021/03/31 08:19:51;;;;;;;30.10;16.90;;;11.70;99.90;;;;;;5035126;28;20660;-77
2021/03/31 08:22:18;;;;;;;29.67;14.53;;;11.90;99.90;;;;;;5035288;28;20301;-77
2021/03/31 08:25:21;;;;;;;22.50;14.17;;;12.10;99.90;;;;;;5035387;28;20179;-77
2021/03/31 08:28:00;;;;;;;20.60;13.93;;;12.20;99.90;;;;;;5035014;28;20263;-78
2021/03/31 08:30:27;;;;;;;21.83;12.63;;;12.30;99.90;;;;;;5035542;28;20185;-77
2021/03/31 08:32:54;;;;;;;24.63;12.57;;;12.50;99.90;;;;;;5034819;28;20186;-77
2021/03/31 08:35:21;;;;;;;19.83;11.43;;;12.60;99.90;;;;;;5034729;28;20246;-78
2021/03/31 08:37:48;;;;;;;17.97;11.00;;;12.60;99.90;;;;;;5035329;28;20297;-79
2021/03/31 08:40:15;;;;;;;22.13;10.30;;;12.80;99.90;;;;;;5034213;28;20286;-78
2021/03/31 08:42:53;;;;;;;20.00;11.07;;;12.80;99.90;;;;;;5035230;28;20178;-79
2021/03/31 08:45:29;;;;;;;15.67;11.20;;;12.90;99.90;;;;;;5034982;28;20649;-78
2021/03/31 08:47:55;;;;;;;16.67;9.77;;;13.10;99.90;;;;;;5035567;28;20201;-79
2021/03/31 08:50:26;;;;;;;24.10;11.50;;;13.10;99.90;;;;;;5035374;28;20178;-79
2021/03/31 08:52:59;;;;;;;16.63;9.97;;;13.20;99.90;;;;;;5035596;28;20202;-78
2021/03/31 08:55:29;;;;;;;18.30;10.07;;;13.20;99.90;;;;;;5035233;28;20587;-78
2021/03/31 08:57:55;;;;;;;16.70;9.90;;;13.20;99.90;;;;;;5035190;28;20728;-78
2021/03/31 09:00:21;;;;;;;17.57;8.97;;;13.30;99.90;;;;;;5035240;28;20210;-78
2021/03/31 09:02:47;;;;;;;14.97;8.47;;;13.50;99.90;;;;;;5035715;28;20178;-79
2021/03/31 09:05:14;;;;;;;13.70;8.87;;;13.40;99.90;;;;;;5036572;28;20550;-78
2021/03/31 09:07:40;;;;;;;20.57;9.20;;;13.50;99.90;;;;;;5036369;28;20298;-78
2021/03/31 09:10:15;;;;;;;17.73;11.17;;;13.70;99.90;;;;;;5035386;28;20193;-77
2021/03/31 09:12:41;;;;;;;11.70;7.70;;;13.90;99.90;;;;;;5035345;28;20181;-79
2021/03/31 09:15:08;;;;;;;10.87;7.87;;;14.00;99.90;;;;;;5036425;28;20648;-79
2021/03/31 09:17:34;;;;;;;13.70;9.23;;;14.00;99.90;;;;;;5035614;28;20225;-79
2021/03/31 09:20:09;;;;;;;17.73;9.57;;;14.00;99.90;;;;;;5037410;28;20222;-78
2021/03/31 09:22:36;;;;;;;13.30;8.70;;;14.10;99.90;;;;;;5036334;28;20615;-78
2021/03/31 09:25:05;;;;;;;20.20;8.87;;;14.20;99.90;;;;;;5032783;28;20516;-78
2021/03/31 09:27:33;;;;;;;16.30;8.43;;;14.40;99.90;;;;;;5036567;28;20556;-78
2021/03/31 09:30:02;;;;;;;13.60;8.30;;;14.50;99.90;;;;;;5035985;28;20179;-78
2021/03/31 09:32:35;;;;;;;12.77;8.77;;;14.60;99.90;;;;;;5036383;28;20185;-77
2021/03/31 09:35:09;;;;;;;14.57;7.80;;;14.60;99.90;;;;;;5020625;28;20176;-79
2021/03/31 09:37:43;;;;;;;11.80;8.33;;;14.70;99.90;;;;;;5037711;28;20205;-79
2021/03/31 09:40:09;;;;;;;12.17;7.87;;;14.80;99.90;;;;;;5038193;28;20190;-78
2021/03/31 09:42:40;;;;;;;9.90;7.40;;;14.90;99.90;;;;;;5035885;28;20178;-78
2021/03/31 09:45:10;;;;;;;10.33;7.10;;;15.20;99.90;;;;;;5037599;28;20182;-78
2021/03/31 09:47:38;;;;;;;7.67;6.47;;;15.30;99.90;;;;;;5039849;28;20236;-79
2021/03/31 09:50:11;;;;;;;10.70;6.73;;;15.30;99.90;;;;;;5040171;28;20182;-78
2021/03/31 09:52:38;;;;;;;15.33;8.13;;;15.40;99.90;;;;;;5041537;28;20758;-78
2021/03/31 09:55:10;;;;;;;13.70;7.10;;;15.70;99.90;;;;;;5040312;28;20254;-79
2021/03/31 09:57:38;;;;;;;15.63;7.53;;;15.70;99.90;;;;;;5042307;28;20195;-79
2021/03/31 10:00:10;;;;;;;12.80;8.10;;;15.90;99.90;;;;;;5034144;28;20221;-78
2021/03/31 10:02:38;;;;;;;9.57;6.90;;;16.00;99.90;;;;;;5027513;28;20776;-79
2021/03/31 10:05:08;;;;;;;11.10;7.87;;;16.00;99.90;;;;;;5042222;28;20173;-79
2021/03/31 10:07:34;;;;;;;14.83;7.63;;;16.00;99.90;;;;;;5039740;28;20195;-79
2021/03/31 10:09:59;;;;;;;12.10;7.90;;;16.20;99.90;;;;;;5040461;28;20174;-78
2021/03/31 10:12:30;;;;;;;10.90;7.47;;;16.30;99.90;;;;;;5039251;28;20184;-78
2021/03/31 10:14:58;;;;;;;15.47;7.97;;;16.30;99.90;;;;;;5039924;28;20683;-79
2021/03/31 10:17:26;;;;;;;11.60;8.03;;;16.50;99.90;;;;;;5040394;28;20202;-78
2021/03/31 10:19:52;;;;;;;8.50;7.37;;;16.70;99.90;;;;;;5041101;28;20197;-76
2021/03/31 10:22:19;;;;;;;14.00;7.90;;;16.80;99.90;;;;;;5040057;28;20184;-79
2021/03/31 10:24:49;;;;;;;11.37;7.73;;;16.90;99.90;;;;;;5039559;28;20267;-79
2021/03/31 10:27:17;;;;;;;15.57;7.67;;;16.90;99.90;;;;;;5038790;28;20667;-79
2021/03/31 10:29:53;;;;;;;9.80;8.03;;;17.00;99.90;;;;;;5039484;28;20178;-79
2021/03/31 10:32:21;;;;;;;10.83;7.83;;;16.90;99.90;;;;;;5040729;28;20188;-80
2021/03/31 10:34:51;;;;;;;11.63;7.73;;;17.10;99.90;;;;;;5038653;28;20174;-79
2021/03/31 10:48:41;;;;;;;17.37;8.07;;;18.00;99.90;;;;;;5037960;28;20232;-78
2021/03/31 10:51:32;;;;;;;14.83;7.87;;;18.10;99.90;;;;;;5038365;28;20185;-78
2021/03/31 10:54:01;;;;;;;14.77;7.27;;;18.20;99.90;;;;;;5036998;28;20653;-76
2021/03/31 10:56:28;;;;;;;16.33;8.73;;;18.30;99.90;;;;;;5031986;28;20202;-74
2021/03/31 10:58:54;;;;;;;13.23;8.10;;;18.30;99.90;;;;;;5020467;28;20183;-79
2021/03/31 11:01:20;;;;;;;13.17;8.63;;;18.40;99.90;;;;;;5024745;28;20182;-76
2021/03/31 11:03:45;;;;;;;15.90;8.33;;;18.60;99.90;;;;;;5034289;28;20531;-79
2021/03/31 11:06:11;;;;;;;15.70;8.50;;;18.70;99.90;;;;;;5023473;28;20214;-79
2021/03/31 11:08:37;;;;;;;11.03;8.33;;;18.80;99.90;;;;;;5026763;28;20272;-79
2021/03/31 11:11:05;;;;;;;11.90;8.17;;;18.70;99.90;;;;;;5027037;28;20621;-78
2021/03/31 11:13:31;;;;;;;20.23;8.47;;;19.00;99.90;;;;;;5029175;28;20526;-76
2021/03/31 11:15:58;;;;;;;15.97;8.80;;;19.20;99.90;;;;;;5022422;28;20222;-78
2021/03/31 11:18:39;;;;;;;13.70;8.13;;;19.20;99.90;;;;;;5022835;28;20182;-75
2021/03/31 11:26:33;;;;;;;13.70;8.33;;;19.50;99.90;;;;;;5025903;28;20320;-79
2021/03/31 11:28:59;;;;;;;12.23;8.83;;;19.70;99.90;;;;;;5025959;28;20777;-77
2021/03/31 11:31:24;;;;;;;17.50;8.53;;;19.70;99.90;;;;;;5023336;28;20694;-78
2021/03/31 11:33:53;;;;;;;16.07;9.27;;;19.70;99.90;;;;;;5026544;28;20179;-78
2021/03/31 11:36:18;;;;;;;12.87;9.00;;;19.70;99.90;;;;;;5024175;28;20203;-81
2021/03/31 11:38:44;;;;;;;14.50;9.17;;;19.80;99.90;;;;;;5031503;28;20203;-79
2021/03/31 11:41:11;;;;;;;18.47;10.07;;;19.80;99.40;;;;;;5033873;28;20194;-77
2021/03/31 11:43:37;;;;;;;14.93;9.97;;;19.90;99.20;;;;;;5026656;28;20192;-79
2021/03/31 11:46:03;;;;;;;17.77;10.00;;;19.60;99.40;;;;;;5030963;28;20211;-77
2021/03/31 11:48:29;;;;;;;17.73;10.03;;;19.70;99.80;;;;;;5044681;28;20183;-78
2021/03/31 11:50:54;;;;;;;16.10;9.60;;;20.00;99.90;;;;;;5034642;28;20174;-79
2021/03/31 11:53:20;;;;;;;22.40;11.43;;;20.10;99.30;;;;;;5031788;28;20246;-79
2021/03/31 11:55:46;;;;;;;13.40;8.27;;;20.30;99.40;;;;;;5028042;28;20660;-79
2021/03/31 11:58:12;;;;;;;19.93;10.40;;;20.30;99.80;;;;;;5031315;28;20178;-78
2021/03/31 12:00:37;;;;;;;16.50;10.03;;;20.50;99.50;;;;;;5031420;28;20217;-79
2021/03/31 12:03:04;;;;;;;12.77;8.50;;;20.80;99.10;;;;;;5029079;28;20633;-79
2021/03/31 12:05:30;;;;;;;15.63;10.73;;;21.00;99.80;;;;;;5031207;28;20181;-79
2021/03/31 12:07:56;;;;;;;20.40;11.87;;;20.90;96.90;;;;;;5030810;28;20226;-78
2021/03/31 12:10:22;;;;;;;16.80;9.83;;;20.80;99.70;;;;;;5033281;28;21181;-78
2021/03/31 12:12:47;;;;;;;16.00;10.00;;;21.30;99.40;;;;;;5022768;28;20594;-78
2021/03/31 12:15:14;;;;;;;16.03;9.77;;;21.30;99.10;;;;;;5029695;28;20194;-79
2021/03/31 12:17:40;;;;;;;19.57;11.17;;;21.30;96.50;;;;;;5022220;28;20214;-78
2021/03/31 12:20:08;;;;;;;14.13;9.77;;;21.20;97.30;;;;;;5030135;28;20696;-78
2021/03/31 12:22:34;;;;;;;15.30;9.40;;;21.20;97.00;;;;;;5029431;28;20253;-78
2021/03/31 12:25:00;;;;;;;11.87;8.83;;;21.40;96.90;;;;;;5036381;28;20198;-78
2021/03/31 12:27:26;;;;;;;19.93;10.40;;;21.60;97.80;;;;;;5038330;28;20353;-78
2021/03/31 12:29:52;;;;;;;12.77;8.90;;;21.70;96.50;;;;;;5038674;28;20521;-77
2021/03/31 12:32:18;;;;;;;12.50;9.43;;;21.70;98.50;;;;;;5009454;28;20209;-79
2021/03/31 12:34:44;;;;;;;17.97;10.33;;;22.00;96.70;;;;;;5037803;28;20175;-78
2021/03/31 12:37:14;;;;;;;18.80;9.77;;;22.00;97.60;;;;;;5037058;28;20198;-79
2021/03/31 12:39:40;;;;;;;12.50;9.70;;;22.20;97.20;;;;;;5036963;28;20194;-78
2021/03/31 12:42:06;;;;;;;16.07;10.50;;;22.40;96.20;;;;;;5038200;28;20166;-79
2021/03/31 12:44:32;;;;;;;20.47;10.43;;;22.30;97.10;;;;;;5035459;28;20567;-78
2021/03/31 12:46:58;;;;;;;19.23;10.77;;;22.40;95.80;;;;;;5058998;22;20306;-78
2021/03/31 12:49:24;;;;;;;18.47;11.13;;;22.50;95.00;;;;;;5032295;28;20186;-76
2021/03/31 12:51:55;;;;;;;17.57;10.77;;;22.50;95.20;;;;;;5023919;28;20232;-77
2021/03/31 12:54:26;;;;;;;24.97;11.07;;;22.50;97.60;;;;;;5024888;28;20170;-77
2021/03/31 12:56:52;;;;;;;20.03;10.73;;;22.50;96.50;;;;;;5033024;28;20175;-76
2021/03/31 12:59:19;;;;;;;15.27;10.57;;;22.60;96.20;;;;;;5032888;28;20237;-75
2021/03/31 13:01:45;;;;;;;16.53;11.10;;;22.70;95.20;;;;;;5027360;28;20166;-76
2021/03/31 13:04:13;;;;;;;14.77;10.37;;;22.40;93.70;;;;;;5032933;28;20179;-76
2021/03/31 13:06:39;;;;;;;15.03;9.30;;;22.30;94.90;;;;;;5031444;28;20167;-77
2021/03/31 13:09:05;;;;;;;14.87;10.13;;;22.50;95.10;;;;;;5032694;28;20633;-76
2021/03/31 13:11:31;;;;;;;13.57;9.80;;;22.60;95.40;;;;;;5032823;28;20174;-76
2021/03/31 13:16:36;;;;;;;16.73;10.27;;;22.70;94.60;;;;;;5033220;28;20178;-77
2021/03/31 13:24:30;;;;;;;14.07;9.53;;;22.90;93.80;;;;;;5036724;28;20193;-77
2021/03/31 13:32:36;;;;;;;10.97;9.37;;;22.90;91.40;;;;;;5036657;28;20240;-76